Time;durP1;ratioP1;P1;durP2;ratioP2;P2;SDS_P1;SDS_P2;PMS_P1;PMS_P2;Temp;Humidity;BMP_temperature;BMP_pressure;BME280_temperature;BME280_humidity;BME280_pressure;Samples;Min_cycle;Max_cycle;Signal;HPM_P1;HPM_P2
2021/01/11 00:00:16;;;;;;;17.25;8.80;;;;;;;;;;5085201;28;20020;-49
2021/01/11 00:02:42;;;;;;;14.68;8.02;;;;;;;;;;5089081;28;20023;-51
2021/01/11 00:05:09;;;;;;;16.20;8.90;;;;;;;;;;5084415;28;20125;-52
2021/01/11 00:07:35;;;;;;;15.70;8.10;;;;;;;;;;5085054;28;20051;-48
2021/01/11 00:10:01;;;;;;;13.57;7.07;;;;;;;;;;5085594;28;20194;-52
2021/01/11 00:12:27;;;;;;;13.77;7.70;;;;;;;;;;5084696;28;20031;-51
2021/01/11 00:14:54;;;;;;;12.45;7.03;;;;;;;;;;5067129;28;20551;-49
2021/01/11 00:17:20;;;;;;;12.10;6.47;;;;;;;;;;5064212;28;20098;-53
2021/01/11 00:19:47;;;;;;;12.95;7.20;;;;;;;;;;5063481;28;20036;-52
2021/01/11 00:22:13;;;;;;;13.27;7.50;;;;;;;;;;5064335;28;20111;-51
2021/01/11 00:24:39;;;;;;;13.07;7.03;;;;;;;;;;5064712;28;20168;-50
2021/01/11 00:27:06;;;;;;;15.02;7.25;;;;;;;;;;5064228;28;20119;-50
2021/01/11 00:29:33;;;;;;;10.77;6.13;;;;;;;;;;5065232;28;20013;-50
2021/01/11 00:31:59;;;;;;;12.00;6.78;;;;;;;;;;5064066;28;20034;-50
2021/01/11 00:34:25;;;;;;;11.40;6.53;;;;;;;;;;5075741;28;20036;-50
2021/01/11 00:36:58;;;;;;;13.23;7.28;;;;;;;;;;5084757;28;20028;-52
2021/01/11 00:39:27;;;;;;;14.60;7.43;;;;;;;;;;5083350;28;20024;-51
2021/01/11 00:42:00;;;;;;;12.55;6.55;;;;;;;;;;5084541;28;20313;-50
2021/01/11 00:44:26;;;;;;;14.18;6.63;;;;;;;;;;5083222;28;20047;-52
2021/01/11 00:46:58;;;;;;;10.32;5.90;;;;;;;;;;5084436;28;20557;-51
2021/01/11 00:49:24;;;;;;;12.40;6.70;;;;;;;;;;5084366;28;20653;-53
2021/01/11 00:51:50;;;;;;;11.90;6.00;;;;;;;;;;5084466;28;20028;-54
2021/01/11 00:54:16;;;;;;;13.90;7.13;;;;;;;;;;5069731;28;20033;-53
2021/01/11 00:56:42;;;;;;;14.57;7.82;;;;;;;;;;5063872;28;20032;-53
2021/01/11 00:59:08;;;;;;;15.02;8.25;;;;;;;;;;5063739;28;20033;-53
2021/01/11 01:01:34;;;;;;;15.70;7.97;;;;;;;;;;5064224;28;20040;-52
2021/01/11 01:04:00;;;;;;;19.02;9.32;;;;;;;;;;5075452;28;20031;-53
2021/01/11 01:06:26;;;;;;;17.75;8.80;;;;;;;;;;5083740;28;20027;-54
2021/01/11 01:08:52;;;;;;;19.70;9.70;;;;;;;;;;5083416;28;20055;-53
2021/01/11 01:11:18;;;;;;;19.55;9.40;;;;;;;;;;5078387;28;20028;-57
2021/01/11 01:13:44;;;;;;;17.02;8.07;;;;;;;;;;5080393;28;20028;-57
2021/01/11 01:16:10;;;;;;;16.20;8.57;;;;;;;;;;5083339;28;20444;-57
2021/01/11 01:18:37;;;;;;;17.52;8.68;;;;;;;;;;5083318;28;20024;-57
2021/01/11 01:21:03;;;;;;;14.52;8.00;;;;;;;;;;5083770;28;20028;-57
2021/01/11 01:23:29;;;;;;;13.68;7.78;;;;;;;;;;5084915;28;20035;-57
2021/01/11 01:25:55;;;;;;;13.18;7.13;;;;;;;;;;5084380;28;20032;-57
2021/01/11 01:28:21;;;;;;;12.35;6.55;;;;;;;;;;5084124;28;20066;-57
2021/01/11 01:30:48;;;;;;;14.40;7.82;;;;;;;;;;5084228;28;20281;-57
2021/01/11 01:33:15;;;;;;;14.18;7.25;;;;;;;;;;5083833;28;20020;-57
2021/01/11 01:35:41;;;;;;;13.27;7.22;;;;;;;;;;5084668;28;20032;-56
2021/01/11 01:38:07;;;;;;;13.25;7.05;;;;;;;;;;5084025;28;20584;-57
2021/01/11 01:40:33;;;;;;;12.98;6.68;;;;;;;;;;5084197;28;20119;-57
2021/01/11 01:42:59;;;;;;;14.05;7.00;;;;;;;;;;5085861;28;20054;-56
2021/01/11 01:45:26;;;;;;;15.43;7.15;;;;;;;;;;5088323;28;20462;-56
2021/01/11 01:47:52;;;;;;;14.73;7.05;;;;;;;;;;5088154;28;20016;-57
2021/01/11 01:50:19;;;;;;;14.18;7.75;;;;;;;;;;5086494;28;20482;-56
2021/01/11 01:52:45;;;;;;;15.02;7.45;;;;;;;;;;5088446;28;20498;-57
2021/01/11 01:55:12;;;;;;;14.13;7.03;;;;;;;;;;5088000;28;20043;-57
2021/01/11 01:57:40;;;;;;;15.20;8.18;;;;;;;;;;5088197;28;20028;-56
2021/01/11 02:00:07;;;;;;;14.55;7.43;;;;;;;;;;5086247;28;20028;-57
2021/01/11 02:02:33;;;;;;;12.90;7.10;;;;;;;;;;5088005;28;20054;-56
2021/01/11 02:04:59;;;;;;;11.88;6.60;;;;;;;;;;5087877;28;20036;-57
2021/01/11 02:07:28;;;;;;;11.32;6.45;;;;;;;;;;5087049;28;20458;-57
2021/01/11 02:09:54;;;;;;;13.55;6.68;;;;;;;;;;5087685;28;20032;-57
2021/01/11 02:12:22;;;;;;;11.30;5.47;;;;;;;;;;5087876;28;20512;-57
2021/01/11 02:15:08;;;;;;;11.68;6.60;;;;;;;;;;5087428;28;20054;-57
2021/01/11 02:17:58;;;;;;;12.07;6.97;;;;;;;;;;5086529;28;20024;-56
2021/01/11 02:20:33;;;;;;;13.02;6.05;;;;;;;;;;5086867;28;20036;-57
2021/01/11 02:23:18;;;;;;;10.95;5.72;;;;;;;;;;5087568;28;20027;-57
2021/01/11 02:25:50;;;;;;;13.18;6.80;;;;;;;;;;5088327;28;20078;-57
2021/01/11 02:28:36;;;;;;;12.82;6.50;;;;;;;;;;5087509;28;20020;-57
2021/01/11 02:31:05;;;;;;;10.73;5.60;;;;;;;;;;5087133;28;20028;-57
2021/01/11 02:33:33;;;;;;;12.13;6.57;;;;;;;;;;5087717;28;20027;-56
2021/01/11 02:36:00;;;;;;;11.70;6.85;;;;;;;;;;5087354;28;20132;-56
2021/01/11 02:38:26;;;;;;;10.00;6.55;;;;;;;;;;5086723;28;20024;-57
2021/01/11 02:40:52;;;;;;;10.13;5.80;;;;;;;;;;5087007;28;20028;-57
2021/01/11 02:43:18;;;;;;;10.18;5.75;;;;;;;;;;5086927;28;20500;-57
2021/01/11 02:45:45;;;;;;;8.77;5.57;;;;;;;;;;5087486;28;20234;-57
2021/01/11 02:48:20;;;;;;;10.23;6.32;;;;;;;;;;5087501;28;20024;-57
2021/01/11 02:50:49;;;;;;;9.82;5.63;;;;;;;;;;5087080;28;20074;-57
2021/01/11 02:53:30;;;;;;;11.38;5.95;;;;;;;;;;5087625;28;20479;-57
2021/01/11 02:56:01;;;;;;;9.65;5.85;;;;;;;;;;5086054;28;20024;-57
2021/01/11 02:58:29;;;;;;;12.70;6.55;;;;;;;;;;5086838;28;20039;-57
2021/01/11 03:00:59;;;;;;;11.10;6.03;;;;;;;;;;5086871;28;20447;-57
2021/01/11 03:03:26;;;;;;;9.98;5.75;;;;;;;;;;5086361;28;20028;-57
2021/01/11 03:05:53;;;;;;;7.95;5.20;;;;;;;;;;5086645;28;20025;-57
2021/01/11 03:08:23;;;;;;;10.55;5.63;;;;;;;;;;5086791;28;20023;-57
2021/01/11 03:10:51;;;;;;;9.70;5.82;;;;;;;;;;5086664;28;20028;-57
2021/01/11 03:13:17;;;;;;;12.32;5.88;;;;;;;;;;5086207;28;20492;-57
2021/01/11 03:15:43;;;;;;;8.70;5.20;;;;;;;;;;5086903;28;20500;-56
2021/01/11 03:18:09;;;;;;;8.57;5.07;;;;;;;;;;5085141;28;20031;-57
2021/01/11 03:20:35;;;;;;;7.53;4.50;;;;;;;;;;5087075;28;20403;-56
2021/01/11 03:23:01;;;;;;;7.60;4.55;;;;;;;;;;5086465;28;20027;-57
2021/01/11 03:25:27;;;;;;;8.07;5.18;;;;;;;;;;5086534;28;20065;-57
2021/01/11 03:27:53;;;;;;;10.10;5.18;;;;;;;;;;5086551;28;20028;-56
2021/01/11 03:30:19;;;;;;;8.45;4.97;;;;;;;;;;5085842;28;20063;-56
2021/01/11 03:32:48;;;;;;;8.43;5.00;;;;;;;;;;5086573;28;20394;-57
2021/01/11 03:35:14;;;;;;;7.03;4.35;;;;;;;;;;5086544;28;20486;-56
2021/01/11 03:37:40;;;;;;;7.97;4.90;;;;;;;;;;5086873;28;20054;-56
2021/01/11 03:40:07;;;;;;;7.63;5.00;;;;;;;;;;5086211;28;20102;-56
2021/01/11 03:42:36;;;;;;;8.02;4.80;;;;;;;;;;5085962;28;20119;-56
2021/01/11 03:45:02;;;;;;;10.77;6.03;;;;;;;;;;5085489;28;20064;-57
2021/01/11 03:47:28;;;;;;;9.02;5.18;;;;;;;;;;5085942;28;20031;-56
2021/01/11 03:49:57;;;;;;;9.65;5.50;;;;;;;;;;5085895;28;20382;-56
2021/01/11 03:52:25;;;;;;;8.98;5.03;;;;;;;;;;5085854;28;20043;-56
2021/01/11 03:54:52;;;;;;;11.80;6.00;;;;;;;;;;5086082;28;20034;-56
2021/01/11 03:57:17;;;;;;;10.23;5.45;;;;;;;;;;5085605;28;20111;-57
2021/01/11 03:59:45;;;;;;;10.15;5.55;;;;;;;;;;5092447;28;20102;-56
2021/01/11 04:02:11;;;;;;;10.73;6.15;;;;;;;;;;5105928;28;20027;-57
2021/01/11 04:04:37;;;;;;;10.52;5.78;;;;;;;;;;5097191;28;20427;-56
2021/01/11 04:07:03;;;;;;;10.18;5.40;;;;;;;;;;5084588;28;20066;-56
2021/01/11 04:09:29;;;;;;;11.57;5.90;;;;;;;;;;5085801;28;20235;-57
2021/01/11 04:11:55;;;;;;;9.18;5.38;;;;;;;;;;5085420;28;20103;-57
2021/01/11 04:14:21;;;;;;;10.95;5.60;;;;;;;;;;5084228;28;20115;-57
2021/01/11 04:16:51;;;;;;;10.40;5.50;;;;;;;;;;5084272;28;20579;-56
2021/01/11 04:19:19;;;;;;;10.68;5.22;;;;;;;;;;5085130;28;20070;-57
2021/01/11 04:21:46;;;;;;;8.02;4.60;;;;;;;;;;5086097;28;20032;-56
2021/01/11 04:24:12;;;;;;;8.93;4.80;;;;;;;;;;5085504;28;20194;-56
2021/01/11 04:26:38;;;;;;;9.13;5.30;;;;;;;;;;5085447;28;20016;-56
2021/01/11 04:29:04;;;;;;;8.88;4.70;;;;;;;;;;5084925;28;20035;-56
2021/01/11 04:31:30;;;;;;;7.32;4.55;;;;;;;;;;5084924;28;20102;-56
2021/01/11 04:33:56;;;;;;;6.72;4.07;;;;;;;;;;5087008;28;20153;-56
2021/01/11 04:36:22;;;;;;;7.15;4.63;;;;;;;;;;5085016;28;20468;-56
2021/01/11 04:38:48;;;;;;;7.10;4.50;;;;;;;;;;5086485;28;20497;-56
2021/01/11 04:41:14;;;;;;;8.45;5.00;;;;;;;;;;5086239;28;20023;-56
2021/01/11 04:43:43;;;;;;;9.82;5.20;;;;;;;;;;5085670;28;20055;-57
2021/01/11 04:46:09;;;;;;;10.77;5.60;;;;;;;;;;5085084;28;20030;-56
2021/01/11 04:48:35;;;;;;;10.48;5.40;;;;;;;;;;5085161;28;20028;-56
2021/01/11 04:51:02;;;;;;;15.57;7.40;;;;;;;;;;5085312;28;20107;-56
2021/01/11 04:53:28;;;;;;;22.73;10.60;;;;;;;;;;5081676;28;20888;-56
2021/01/11 04:55:55;;;;;;;37.20;17.70;;;;;;;;;;5086340;28;20020;-56
2021/01/11 04:58:22;;;;;;;30.20;14.77;;;;;;;;;;5083154;28;20031;-57
2021/01/11 05:00:49;;;;;;;24.48;13.20;;;;;;;;;;5083611;28;20486;-55
2021/01/11 05:03:15;;;;;;;25.70;13.60;;;;;;;;;;5086456;28;20030;-56
2021/01/11 05:05:45;;;;;;;18.30;11.00;;;;;;;;;;5086394;28;20454;-56
2021/01/11 05:08:11;;;;;;;18.02;9.73;;;;;;;;;;5086619;28;20023;-56
2021/01/11 05:10:38;;;;;;;16.52;9.95;;;;;;;;;;5086114;28;20524;-56
2021/01/11 05:13:04;;;;;;;15.27;8.75;;;;;;;;;;5086026;28;20098;-56
2021/01/11 05:15:32;;;;;;;15.15;9.07;;;;;;;;;;5084516;28;20099;-56
2021/01/11 05:17:58;;;;;;;15.82;8.38;;;;;;;;;;5085703;28;20052;-56
2021/01/11 05:20:28;;;;;;;15.75;8.70;;;;;;;;;;5085900;28;20025;-56
2021/01/11 05:22:59;;;;;;;14.35;8.25;;;;;;;;;;5085659;28;20024;-56
2021/01/11 05:25:26;;;;;;;14.20;8.02;;;;;;;;;;5085571;28;20142;-56
2021/01/11 05:28:11;;;;;;;15.50;8.20;;;;;;;;;;5085711;28;20103;-56
2021/01/11 05:30:41;;;;;;;13.85;7.93;;;;;;;;;;5085941;28;20032;-56
2021/01/11 05:33:09;;;;;;;12.07;7.05;;;;;;;;;;5085698;28;20546;-56
2021/01/11 05:35:36;;;;;;;13.68;7.40;;;;;;;;;;5085439;28;20040;-56
2021/01/11 05:38:13;;;;;;;12.48;7.57;;;;;;;;;;5085809;28;20421;-56
2021/01/11 05:40:40;;;;;;;13.52;7.35;;;;;;;;;;5085849;28;20056;-56
2021/01/11 05:43:06;;;;;;;19.30;9.80;;;;;;;;;;5083853;28;20096;-55
2021/01/11 05:45:33;;;;;;;14.88;8.18;;;;;;;;;;5083992;28;20024;-55
2021/01/11 05:48:12;;;;;;;13.00;7.95;;;;;;;;;;5084605;28;20032;-56
2021/01/11 05:50:46;;;;;;;15.25;8.52;;;;;;;;;;5083947;28;20027;-55
2021/01/11 05:53:25;;;;;;;16.95;8.90;;;;;;;;;;5084385;28;20497;-55
2021/01/11 05:55:52;;;;;;;16.45;8.95;;;;;;;;;;5083899;28;20505;-56
2021/01/11 05:58:20;;;;;;;14.27;8.13;;;;;;;;;;5081882;28;20052;-54
2021/01/11 06:00:46;;;;;;;14.23;7.82;;;;;;;;;;5084809;28;20024;-56
2021/01/11 06:03:13;;;;;;;15.65;8.32;;;;;;;;;;5083533;28;20549;-55
2021/01/11 06:05:40;;;;;;;12.95;7.13;;;;;;;;;;5083725;28;20557;-56
2021/01/11 06:08:06;;;;;;;14.57;7.88;;;;;;;;;;5083643;28;20024;-56
2021/01/11 06:10:33;;;;;;;14.88;7.85;;;;;;;;;;5082529;28;20524;-56
2021/01/11 06:12:59;;;;;;;12.77;7.53;;;;;;;;;;5084010;28;20218;-56
2021/01/11 06:15:26;;;;;;;14.60;8.75;;;;;;;;;;5083713;28;20030;-56
2021/01/11 06:17:53;;;;;;;15.70;7.93;;;;;;;;;;5083692;28;20048;-57
2021/01/11 06:20:20;;;;;;;13.95;8.55;;;;;;;;;;5083735;28;20035;-58
2021/01/11 06:22:46;;;;;;;14.45;8.18;;;;;;;;;;5084861;28;20028;-58
2021/01/11 06:25:18;;;;;;;19.88;9.50;;;;;;;;;;5083674;28;20405;-58
2021/01/11 06:28:03;;;;;;;26.00;11.98;;;;;;;;;;5084385;28;20016;-58
2021/01/11 06:30:36;;;;;;;28.77;12.40;;;;;;;;;;5087063;28;20024;-59
2021/01/11 06:33:17;;;;;;;21.97;11.67;;;;;;;;;;5087408;28;20331;-58
2021/01/11 06:35:45;;;;;;;20.45;10.43;;;;;;;;;;5088213;28;20028;-58
2021/01/11 06:38:22;;;;;;;17.70;9.52;;;;;;;;;;5086954;28;20039;-59
2021/01/11 06:41:03;;;;;;;16.75;8.75;;;;;;;;;;5087127;28;20031;-58
2021/01/11 06:43:38;;;;;;;14.43;7.60;;;;;;;;;;5087290;28;20501;-58
2021/01/11 06:46:05;;;;;;;12.45;7.15;;;;;;;;;;5086858;28;20070;-58
2021/01/11 06:48:34;;;;;;;11.68;6.80;;;;;;;;;;5087054;28;20028;-59
2021/01/11 06:51:07;;;;;;;12.38;7.25;;;;;;;;;;5087100;28;20417;-59
2021/01/11 06:53:33;;;;;;;11.95;7.00;;;;;;;;;;5086462;28;20077;-59
2021/01/11 06:56:09;;;;;;;22.25;9.88;;;;;;;;;;5087092;28;20548;-59
2021/01/11 06:58:36;;;;;;;55.80;20.60;;;;;;;;;;5087142;28;20094;-58
2021/01/11 07:01:04;;;;;;;45.85;18.42;;;;;;;;;;5086898;28;20048;-58
2021/01/11 07:03:43;;;;;;;37.33;16.55;;;;;;;;;;5086698;28;20097;-59
2021/01/11 07:06:27;;;;;;;29.50;12.73;;;;;;;;;;5086825;28;20444;-58
2021/01/11 07:09:02;;;;;;;21.50;11.00;;;;;;;;;;5087166;28;20504;-58
2021/01/11 07:11:35;;;;;;;22.63;11.43;;;;;;;;;;5086868;28;20016;-59
2021/01/11 07:14:03;;;;;;;19.30;10.00;;;;;;;;;;5086666;28;20060;-56
2021/01/11 07:16:42;;;;;;;17.42;9.63;;;;;;;;;;5086856;28;20028;-56
2021/01/11 07:19:09;;;;;;;16.98;9.27;;;;;;;;;;5086636;28;20036;-56
2021/01/11 07:21:37;;;;;;;15.27;8.90;;;;;;;;;;5086483;28;20502;-56
2021/01/11 07:24:04;;;;;;;15.40;8.18;;;;;;;;;;5085093;28;20594;-56
2021/01/11 07:26:31;;;;;;;14.10;8.35;;;;;;;;;;5086513;28;20132;-56
2021/01/11 07:29:09;;;;;;;15.27;8.70;;;;;;;;;;5086672;28;20364;-56
2021/01/11 07:31:35;;;;;;;13.77;8.07;;;;;;;;;;5086794;28;20100;-56
2021/01/11 07:34:08;;;;;;;13.32;7.70;;;;;;;;;;5086575;28;20694;-56
2021/01/11 07:36:36;;;;;;;16.17;8.85;;;;;;;;;;5086328;28;20028;-56
2021/01/11 07:39:07;;;;;;;15.30;9.23;;;;;;;;;;5086185;28;20027;-56
2021/01/11 07:41:33;;;;;;;19.25;10.77;;;;;;;;;;5085523;28;20073;-56
2021/01/11 07:44:12;;;;;;;21.52;11.98;;;;;;;;;;5086142;28;20028;-56
2021/01/11 07:46:39;;;;;;;18.45;9.82;;;;;;;;;;5086507;28;20024;-56
2021/01/11 07:49:15;;;;;;;18.33;9.60;;;;;;;;;;5086177;28;20335;-56
2021/01/11 07:51:42;;;;;;;14.55;8.68;;;;;;;;;;5085796;28;20031;-56
2021/01/11 07:54:13;;;;;;;17.80;9.27;;;;;;;;;;5085413;28;20028;-56
2021/01/11 07:56:40;;;;;;;17.02;9.95;;;;;;;;;;5085930;28;20054;-56
2021/01/11 07:59:08;;;;;;;19.13;10.38;;;;;;;;;;5085364;28;20036;-56
2021/01/11 08:01:37;;;;;;;20.38;10.55;;;;;;;;;;5086396;28;20427;-56
2021/01/11 08:04:04;;;;;;;17.45;9.30;;;;;;;;;;5085793;28;20035;-56
2021/01/11 08:06:31;;;;;;;15.75;9.48;;;;;;;;;;5085562;28;20462;-56
2021/01/11 08:08:58;;;;;;;16.63;8.93;;;;;;;;;;5086004;28;20465;-56
2021/01/11 08:11:25;;;;;;;14.57;8.63;;;;;;;;;;5085562;28;20509;-56
2021/01/11 08:13:51;;;;;;;14.02;8.80;;;;;;;;;;5085427;28;20039;-55
2021/01/11 08:16:17;;;;;;;17.02;9.15;;;;;;;;;;5085977;28;20402;-56
2021/01/11 08:18:44;;;;;;;16.67;9.07;;;;;;;;;;5084907;28;20124;-56
2021/01/11 08:21:11;;;;;;;16.52;10.25;;;;;;;;;;5084976;28;20036;-56
2021/01/11 08:23:38;;;;;;;16.20;8.85;;;;;;;;;;5085532;28;20120;-55
2021/01/11 08:26:07;;;;;;;17.90;9.20;;;;;;;;;;5085294;28;20486;-56
2021/01/11 08:28:33;;;;;;;13.65;8.38;;;;;;;;;;5085536;28;20077;-56
2021/01/11 08:31:00;;;;;;;11.95;7.28;;;;;;;;;;5085308;28;20054;-55
2021/01/11 08:33:27;;;;;;;13.65;7.00;;;;;;;;;;5085164;28;20032;-56
2021/01/11 08:35:53;;;;;;;11.10;6.47;;;;;;;;;;5085433;28;20149;-55
2021/01/11 08:38:19;;;;;;;14.10;6.43;;;;;;;;;;5085223;28;20099;-56
2021/01/11 08:40:49;;;;;;;10.48;5.72;;;;;;;;;;5086039;28;20024;-56
2021/01/11 08:43:23;;;;;;;12.85;7.20;;;;;;;;;;5085402;28;20028;-55
2021/01/11 08:45:53;;;;;;;18.35;8.10;;;;;;;;;;5085115;28;20016;-55
2021/01/11 08:48:24;;;;;;;12.38;6.95;;;;;;;;;;5084717;28;20030;-55
2021/01/11 08:50:51;;;;;;;14.30;9.20;;;;;;;;;;5085085;28;20032;-56
2021/01/11 08:53:19;;;;;;;15.52;9.45;;;;;;;;;;5084098;28;20494;-55
2021/01/11 08:56:11;;;;;;;14.07;8.75;;;;;;;;;;5085574;28;20677;-56
2021/01/11 08:58:38;;;;;;;12.32;7.63;;;;;;;;;;5084376;28;20434;-55
2021/01/11 09:01:27;;;;;;;12.25;7.32;;;;;;;;;;5084466;28;20024;-56
2021/01/11 09:04:02;;;;;;;13.18;7.95;;;;;;;;;;5084601;28;20494;-55
2021/01/11 09:06:45;;;;;;;12.65;7.40;;;;;;;;;;5084772;28;20047;-56
2021/01/11 09:09:11;;;;;;;11.65;7.55;;;;;;;;;;5084582;28;20027;-56
2021/01/11 09:11:38;;;;;;;14.48;8.00;;;;;;;;;;5084628;28;20020;-56
2021/01/11 09:14:07;;;;;;;14.57;8.70;;;;;;;;;;5084298;28;20375;-56
2021/01/11 09:16:33;;;;;;;14.50;8.05;;;;;;;;;;5084741;28;20024;-55
2021/01/11 09:19:18;;;;;;;14.88;8.88;;;;;;;;;;5084817;28;20122;-56
2021/01/11 09:21:45;;;;;;;14.98;7.97;;;;;;;;;;5083787;28;20032;-55
2021/01/11 09:24:12;;;;;;;12.88;7.10;;;;;;;;;;5084136;28;20085;-55
2021/01/11 09:26:40;;;;;;;10.38;6.65;;;;;;;;;;5084603;28;20182;-55
2021/01/11 09:29:07;;;;;;;14.52;8.23;;;;;;;;;;5084292;28;20059;-55
2021/01/11 09:31:33;;;;;;;14.20;7.55;;;;;;;;;;5084010;28;20097;-55
2021/01/11 09:33:59;;;;;;;12.27;6.85;;;;;;;;;;5084816;28;20028;-55
2021/01/11 09:36:31;;;;;;;13.73;7.38;;;;;;;;;;5084335;28;20509;-56
2021/01/11 09:38:58;;;;;;;22.27;11.40;;;;;;;;;;5084410;28;20464;-55
2021/01/11 09:41:24;;;;;;;29.95;14.30;;;;;;;;;;5084011;28;20049;-55
2021/01/11 09:43:51;;;;;;;26.20;12.27;;;;;;;;;;5084043;28;20059;-56
2021/01/11 09:46:17;;;;;;;24.83;12.73;;;;;;;;;;5084562;28;20707;-55
2021/01/11 09:48:43;;;;;;;25.02;12.45;;;;;;;;;;5084418;28;20024;-53
2021/01/11 09:51:09;;;;;;;20.45;11.10;;;;;;;;;;5083440;28;20078;-56
2021/01/11 09:53:35;;;;;;;18.02;9.13;;;;;;;;;;5085607;28;20036;-55
2021/01/11 09:56:01;;;;;;;19.65;9.95;;;;;;;;;;5084028;28;20024;-55
2021/01/11 09:58:27;;;;;;;15.45;8.77;;;;;;;;;;5085637;28;20066;-55
2021/01/11 10:00:53;;;;;;;13.18;7.32;;;;;;;;;;5084342;28;20455;-57
2021/01/11 10:03:22;;;;;;;14.48;7.38;;;;;;;;;;5085424;28;20026;-58
2021/01/11 10:05:55;;;;;;;13.43;7.65;;;;;;;;;;5089126;28;20612;-58
2021/01/11 10:08:21;;;;;;;14.07;8.15;;;;;;;;;;5088950;28;20359;-58
2021/01/11 10:10:47;;;;;;;16.17;8.63;;;;;;;;;;5090445;28;20024;-57
2021/01/11 10:13:13;;;;;;;15.18;8.82;;;;;;;;;;5086351;28;20574;-58
2021/01/11 10:15:39;;;;;;;18.33;9.15;;;;;;;;;;5085463;28;20589;-57
2021/01/11 10:18:05;;;;;;;12.60;7.55;;;;;;;;;;5087889;28;20111;-57
2021/01/11 10:20:31;;;;;;;14.65;8.43;;;;;;;;;;5084001;28;20024;-57
2021/01/11 10:22:57;;;;;;;14.60;8.40;;;;;;;;;;5084392;28;20032;-56
2021/01/11 10:25:23;;;;;;;18.20;8.60;;;;;;;;;;5087611;28;20442;-57
2021/01/11 10:27:52;;;;;;;17.88;10.30;;;;;;;;;;5087562;28;20055;-58
2021/01/11 10:30:18;;;;;;;18.10;11.13;;;;;;;;;;5087208;28;20020;-54
2021/01/11 10:32:44;;;;;;;17.58;9.68;;;;;;;;;;5088503;28;20493;-56
2021/01/11 10:35:11;;;;;;;14.43;8.30;;;;;;;;;;5088657;28;20028;-56
2021/01/11 10:37:37;;;;;;;13.52;7.72;;;;;;;;;;5089293;28;20119;-59
2021/01/11 10:40:03;;;;;;;18.77;9.80;;;;;;;;;;5080520;28;20066;-56
2021/01/11 10:42:30;;;;;;;14.15;8.27;;;;;;;;;;5071344;28;20750;-56
2021/01/11 10:44:56;;;;;;;13.32;8.10;;;;;;;;;;5088663;28;20115;-55
2021/01/11 10:47:22;;;;;;;12.50;7.45;;;;;;;;;;5088587;28;20996;-54
2021/01/11 10:49:48;;;;;;;13.73;8.68;;;;;;;;;;5088190;28;20024;-55
2021/01/11 10:52:14;;;;;;;16.02;9.13;;;;;;;;;;5088622;28;20524;-57
2021/01/11 10:54:41;;;;;;;17.48;9.82;;;;;;;;;;5087623;28;20498;-57
2021/01/11 10:57:08;;;;;;;15.68;8.50;;;;;;;;;;5083850;28;20158;-57
2021/01/11 10:59:34;;;;;;;17.98;9.60;;;;;;;;;;5086431;28;20095;-57
2021/01/11 11:02:00;;;;;;;21.75;10.23;;;;;;;;;;5086637;28;20111;-56
2021/01/11 11:04:27;;;;;;;26.20;12.15;;;;;;;;;;5086145;28;20031;-58
2021/01/11 11:06:57;;;;;;;26.70;11.60;;;;;;;;;;5080527;28;20029;-55
2021/01/11 11:09:24;;;;;;;29.75;11.73;;;;;;;;;;5065968;28;20025;-54
2021/01/11 11:11:54;;;;;;;28.42;12.80;;;;;;;;;;5065548;28;20406;-55
2021/01/11 11:14:20;;;;;;;22.67;11.10;;;;;;;;;;5065953;28;20062;-56
2021/01/11 11:16:46;;;;;;;19.90;10.13;;;;;;;;;;5073848;28;20076;-56
2021/01/11 11:19:13;;;;;;;19.17;9.95;;;;;;;;;;5085900;28;20064;-55
2021/01/11 11:21:40;;;;;;;13.65;8.43;;;;;;;;;;5086078;28;20024;-55
2021/01/11 11:24:06;;;;;;;14.90;8.60;;;;;;;;;;5085913;28;20056;-54
2021/01/11 11:26:32;;;;;;;17.85;9.50;;;;;;;;;;5071250;28;20027;-55
2021/01/11 11:28:58;;;;;;;19.15;10.27;;;;;;;;;;5086176;28;20106;-56
2021/01/11 11:31:24;;;;;;;18.80;10.20;;;;;;;;;;5085738;28;20162;-57
2021/01/11 11:33:51;;;;;;;21.58;12.10;;;;;;;;;;5085834;28;20043;-56
2021/01/11 11:36:20;;;;;;;18.65;9.75;;;;;;;;;;5082772;28;20024;-54
2021/01/11 11:38:46;;;;;;;20.38;10.80;;;;;;;;;;5066592;28;20036;-56
2021/01/11 11:41:12;;;;;;;20.65;10.95;;;;;;;;;;5064970;28;20191;-56
2021/01/11 11:43:38;;;;;;;28.50;14.10;;;;;;;;;;5065219;28;20033;-57
2021/01/11 11:46:05;;;;;;;21.27;11.65;;;;;;;;;;5065487;28;20584;-56
2021/01/11 11:48:32;;;;;;;20.42;11.43;;;;;;;;;;5085702;28;20028;-56
2021/01/11 11:50:59;;;;;;;24.08;13.02;;;;;;;;;;5084545;28;20028;-55
2021/01/11 11:53:25;;;;;;;20.95;11.48;;;;;;;;;;5085815;28;20028;-56
2021/01/11 11:55:51;;;;;;;17.33;10.27;;;;;;;;;;5086122;28;20031;-56
2021/01/11 11:58:17;;;;;;;16.17;9.60;;;;;;;;;;5086389;28;20095;-56
2021/01/11 12:00:43;;;;;;;15.73;9.27;;;;;;;;;;5086009;28;20028;-55
2021/01/11 12:03:09;;;;;;;18.38;10.23;;;;;;;;;;5079813;28;20460;-56
2021/01/11 12:05:35;;;;;;;18.08;10.57;;;;;;;;;;5078896;28;20077;-56
2021/01/11 12:08:01;;;;;;;16.25;9.68;;;;;;;;;;5084315;28;20831;-55
2021/01/11 12:10:27;;;;;;;16.23;9.65;;;;;;;;;;5084240;28;20055;-56
2021/01/11 12:12:53;;;;;;;17.67;9.32;;;;;;;;;;5084964;28;20020;-57
2021/01/11 12:15:21;;;;;;;15.90;9.45;;;;;;;;;;5083665;28;20085;-57
2021/01/11 12:17:47;;;;;;;15.43;9.05;;;;;;;;;;5082738;28;20524;-57
2021/01/11 12:20:14;;;;;;;14.38;8.45;;;;;;;;;;5080488;28;20115;-56
2021/01/11 12:22:40;;;;;;;14.30;8.07;;;;;;;;;;5082204;28;20081;-56
2021/01/11 12:25:06;;;;;;;21.90;10.80;;;;;;;;;;5085346;28;20051;-57
2021/01/11 12:27:33;;;;;;;26.73;11.27;;;;;;;;;;5079107;28;20027;-57
2021/01/11 12:29:59;;;;;;;28.98;12.40;;;;;;;;;;5083367;28;20213;-58
2021/01/11 12:32:25;;;;;;;27.67;13.35;;;;;;;;;;5085106;28;20106;-58
2021/01/11 12:34:51;;;;;;;25.85;12.73;;;;;;;;;;5081423;28;20107;-58
2021/01/11 12:37:18;;;;;;;20.38;11.60;;;;;;;;;;5081410;28;20028;-58
2021/01/11 12:39:45;;;;;;;22.60;11.18;;;;;;;;;;5065158;28;20115;-58
2021/01/11 12:42:11;;;;;;;19.15;10.55;;;;;;;;;;5063739;28;20655;-57
2021/01/11 12:44:38;;;;;;;14.93;9.02;;;;;;;;;;5065079;28;20076;-58
2021/01/11 12:47:04;;;;;;;19.42;10.75;;;;;;;;;;5075732;28;20481;-57
2021/01/11 12:49:31;;;;;;;22.48;11.80;;;;;;;;;;5072668;28;20401;-58
2021/01/11 12:51:58;;;;;;;16.25;9.15;;;;;;;;;;5079665;28;20028;-58
2021/01/11 12:54:24;;;;;;;15.57;9.43;;;;;;;;;;5083655;28;20056;-57
2021/01/11 12:56:50;;;;;;;17.27;10.45;;;;;;;;;;5084717;28;20039;-57
2021/01/11 12:59:16;;;;;;;31.05;16.48;;;;;;;;;;5085111;28;20035;-57
2021/01/11 13:01:42;;;;;;;24.67;13.85;;;;;;;;;;5084768;28;20490;-56
2021/01/11 13:04:09;;;;;;;20.85;12.20;;;;;;;;;;5085062;28;20493;-57
2021/01/11 13:06:40;;;;;;;19.35;10.25;;;;;;;;;;5084882;28;20069;-56
2021/01/11 13:09:08;;;;;;;19.92;11.02;;;;;;;;;;5084360;28;20028;-56
2021/01/11 13:11:34;;;;;;;17.73;10.25;;;;;;;;;;5084532;28;20054;-56
2021/01/11 13:14:02;;;;;;;17.02;10.27;;;;;;;;;;5084831;28;20036;-56
2021/01/11 13:16:30;;;;;;;20.38;11.65;;;;;;;;;;5083470;28;20024;-56
2021/01/11 13:18:58;;;;;;;18.33;11.05;;;;;;;;;;5084807;28;20024;-56
2021/01/11 13:21:24;;;;;;;18.38;10.27;;;;;;;;;;5084246;28;20557;-55
2021/01/11 13:23:50;;;;;;;16.95;9.82;;;;;;;;;;5084492;28;20524;-56
2021/01/11 13:26:26;;;;;;;17.10;9.27;;;;;;;;;;5084872;28;20184;-55
2021/01/11 13:28:52;;;;;;;16.65;9.88;;;;;;;;;;5084888;28;20380;-55
2021/01/11 13:31:19;;;;;;;18.45;9.57;;;;;;;;;;5084921;28;20157;-55
2021/01/11 13:33:46;;;;;;;17.63;10.38;;;;;;;;;;5085000;28;20032;-55
2021/01/11 13:36:19;;;;;;;16.60;9.45;;;;;;;;;;5084363;28;20024;-54
2021/01/11 13:38:45;;;;;;;16.42;9.95;;;;;;;;;;5084461;28;20035;-55
2021/01/11 13:41:11;;;;;;;16.90;9.85;;;;;;;;;;5083678;28;20099;-55
2021/01/11 13:43:37;;;;;;;15.85;9.32;;;;;;;;;;5084103;28;20513;-55
2021/01/11 13:46:03;;;;;;;15.98;9.77;;;;;;;;;;5084221;28;20051;-55
2021/01/11 13:48:29;;;;;;;16.20;9.40;;;;;;;;;;5084280;28;20126;-56
2021/01/11 13:50:55;;;;;;;20.58;11.00;;;;;;;;;;5084327;28;20482;-56
2021/01/11 13:53:21;;;;;;;19.35;10.93;;;;;;;;;;5083531;28;20103;-56
2021/01/11 13:55:48;;;;;;;22.55;12.10;;;;;;;;;;5084508;28;20099;-55
2021/01/11 13:58:14;;;;;;;19.80;11.35;;;;;;;;;;5084164;28;20034;-55
2021/01/11 14:00:41;;;;;;;22.10;12.05;;;;;;;;;;5084339;28;20384;-55
2021/01/11 14:03:07;;;;;;;21.75;12.63;;;;;;;;;;5083744;28;20028;-54
2021/01/11 14:05:33;;;;;;;19.42;11.38;;;;;;;;;;5083076;28;20619;-55
2021/01/11 14:08:00;;;;;;;19.35;11.20;;;;;;;;;;5084340;28;20065;-55
2021/01/11 14:10:26;;;;;;;20.52;11.35;;;;;;;;;;5083502;28;20020;-56
2021/01/11 14:12:53;;;;;;;19.55;10.95;;;;;;;;;;5083943;28;20027;-56
2021/01/11 14:15:20;;;;;;;18.92;11.25;;;;;;;;;;5084981;28;20036;-56
2021/01/11 14:17:46;;;;;;;18.85;10.60;;;;;;;;;;5084537;28;20032;-56
2021/01/11 14:20:15;;;;;;;17.15;10.40;;;;;;;;;;5083955;28;20032;-56
2021/01/11 14:22:43;;;;;;;18.42;10.93;;;;;;;;;;5083728;28;20449;-56
2021/01/11 14:25:09;;;;;;;18.75;10.60;;;;;;;;;;5082188;28;20437;-56
2021/01/11 14:27:36;;;;;;;19.48;11.50;;;;;;;;;;5083971;28;20051;-55
2021/01/11 14:30:04;;;;;;;17.83;10.65;;;;;;;;;;5083774;28;20097;-55
2021/01/11 14:32:30;;;;;;;19.48;11.63;;;;;;;;;;5083681;28;20024;-56